Weather at Maple Ridge Airport

Public forecast

Using degrees Fahrenheit for public forecast. Weather courtesy of forecast.io.

Closest aviation weather report (METAR) to Maple Ridge Airport

Closest report is Genesee County Airport, 13.1 nm (24.3 km) SE.

2024/05/30 18:56 (retrieved 9 minutes ago)

KGVQ 301856Z AUTO 02011G15KT 10SM CLR 16/02 A3013 RMK AO2 SLP202 T01610017

Closest aviation forecast (TAF) to Maple Ridge Airport

Closest forecast is Buffalo Niagara International Airport, 22.9 nm (42.4 km) SW.

2024/05/30 18:30 (retrieved 35 minutes ago)

TAF KBUF 301729Z 3018/3118 35012KT P6SM FEW050 FM302200 33007KT P6SM SKC FM310100 30004KT P6SM SKC FM311500 27006KT P6SM SKC